createdAt,value
2023-05-09T00:01:46.597Z,4.10
2023-05-09T00:03:49.659Z,3.55
2023-05-09T00:05:51.529Z,3.35
2023-05-09T00:07:53.140Z,3.47
2023-05-09T00:09:59.686Z,3.20
2023-05-09T00:12:01.391Z,3.20
2023-05-09T00:14:03.315Z,3.45
2023-05-09T00:16:09.837Z,3.20
2023-05-09T00:18:11.425Z,3.22
2023-05-09T00:20:14.666Z,3.30
2023-05-09T00:22:21.461Z,3.10
2023-05-09T00:24:24.027Z,3.10
2023-05-09T00:26:26.283Z,4.10
2023-05-09T00:28:27.746Z,3.60
2023-05-09T00:30:29.327Z,3.20
2023-05-09T00:32:32.104Z,3.15
2023-05-09T00:34:33.560Z,3.78
2023-05-09T00:36:40.596Z,3.47
2023-05-09T00:38:42.104Z,3.65
2023-05-09T00:40:45.978Z,3.22
2023-05-09T00:42:47.888Z,3.33
2023-05-09T00:44:49.755Z,3.58
2023-05-09T00:46:51.243Z,3.38
2023-05-09T00:49:04.886Z,3.60
2023-05-09T00:51:07.388Z,3.25
2023-05-09T00:53:09.550Z,3.10
2023-05-09T00:55:11.778Z,3.80
2023-05-09T00:57:14.242Z,3.50
2023-05-09T00:59:17.563Z,3.35
2023-05-09T01:01:22.405Z,3.30
2023-05-09T01:03:28.619Z,3.30
2023-05-09T01:05:58.557Z,3.53
2023-05-09T01:08:21.578Z,3.67
2023-05-09T01:10:39.470Z,3.53
2023-05-09T01:12:58.827Z,3.70
2023-05-09T01:15:26.808Z,3.70
2023-05-09T01:17:43.964Z,3.75
2023-05-09T01:20:02.463Z,4.00
2023-05-09T01:22:08.847Z,3.80
2023-05-09T01:24:27.057Z,3.40
2023-05-09T01:26:45.325Z,4.57
2023-05-09T01:29:05.064Z,3.50
2023-05-09T01:31:09.729Z,3.50
2023-05-09T01:33:18.235Z,3.45
2023-05-09T01:35:23.774Z,4.25
2023-05-09T01:37:35.550Z,3.85
2023-05-09T01:39:41.351Z,4.32
2023-05-09T01:41:42.894Z,4.82
2023-05-09T01:43:47.229Z,4.03
2023-05-09T01:45:51.256Z,3.45
2023-05-09T01:47:53.987Z,3.35
2023-05-09T01:50:01.270Z,3.28
2023-05-09T01:52:11.287Z,3.63
2023-05-09T01:54:14.319Z,4.60
2023-05-09T01:56:17.225Z,3.35
2023-05-09T01:58:22.093Z,3.63
2023-05-09T02:00:27.965Z,3.38
2023-05-09T02:02:29.637Z,3.78
2023-05-09T02:04:32.796Z,3.78
2023-05-09T02:06:36.156Z,3.60
2023-05-09T02:08:39.845Z,3.75
2023-05-09T02:10:42.564Z,3.08
2023-05-09T02:12:46.412Z,4.47
2023-05-09T02:14:48.028Z,3.60
2023-05-09T02:16:50.257Z,3.67
2023-05-09T02:18:52.233Z,3.65
2023-05-09T02:20:53.783Z,3.40
2023-05-09T02:22:55.375Z,3.78
2023-05-09T02:24:57.234Z,3.28
2023-05-09T02:26:58.877Z,3.95
2023-05-09T02:29:02.617Z,3.30
2023-05-09T02:31:07.033Z,3.90
2023-05-09T02:33:11.759Z,3.67
2023-05-09T02:35:17.762Z,4.68
2023-05-09T02:37:21.347Z,3.40
2023-05-09T02:39:27.880Z,3.58
2023-05-09T02:41:31.123Z,4.30
2023-05-09T02:43:32.845Z,3.42
2023-05-09T02:45:34.598Z,3.78
2023-05-09T02:47:38.301Z,3.97
2023-05-09T02:49:40.339Z,3.80
2023-05-09T02:51:43.155Z,3.45
2023-05-09T02:53:44.981Z,3.45
2023-05-09T02:55:47.204Z,4.20
2023-05-09T02:57:51.989Z,3.88
2023-05-09T03:00:04.613Z,4.03
2023-05-09T03:02:06.526Z,3.90
2023-05-09T03:04:08.344Z,4.35
2023-05-09T03:06:14.161Z,5.38
2023-05-09T03:08:16.263Z,3.90
2023-05-09T03:10:18.759Z,3.65
2023-05-09T03:12:24.963Z,4.22
2023-05-09T03:14:29.373Z,4.55
2023-05-09T03:16:31.267Z,3.80
2023-05-09T03:18:34.044Z,3.50
2023-05-09T03:20:36.369Z,4.43
2023-05-09T03:22:38.633Z,4.43
2023-05-09T03:24:43.768Z,4.28
2023-05-09T03:26:45.369Z,4.00
2023-05-09T03:28:47.170Z,3.92
2023-05-09T03:30:50.327Z,4.07
2023-05-09T03:32:54.708Z,4.93
2023-05-09T03:34:57.250Z,5.32
2023-05-09T03:37:01.570Z,4.45
2023-05-09T03:39:04.225Z,4.13
2023-05-09T03:41:05.796Z,3.75
2023-05-09T03:43:09.208Z,4.00
2023-05-09T03:45:12.246Z,4.45
2023-05-09T03:47:14.179Z,4.03
2023-05-09T03:49:15.674Z,4.30
2023-05-09T03:51:18.402Z,4.60
2023-05-09T03:53:20.728Z,4.20
2023-05-09T03:55:27.531Z,4.07
2023-05-09T03:57:29.162Z,4.10
2023-05-09T03:59:32.213Z,5.28
2023-05-09T04:01:34.596Z,3.85
2023-05-09T04:03:38.261Z,4.90
2023-05-09T04:05:40.601Z,4.38
2023-05-09T04:07:47.544Z,4.43
2023-05-09T04:09:50.546Z,4.50
2023-05-09T04:11:52.231Z,3.95
2023-05-09T04:13:54.448Z,4.78
2023-05-09T04:16:01.874Z,4.20
2023-05-09T04:18:08.855Z,4.78
2023-05-09T04:20:11.588Z,4.38
2023-05-09T04:22:14.306Z,4.13
2023-05-09T04:24:16.106Z,4.60
2023-05-09T04:26:24.448Z,4.32
2023-05-09T04:28:28.276Z,4.28
2023-05-09T04:30:31.483Z,4.50
2023-05-09T04:32:33.671Z,4.55
2023-05-09T04:34:35.767Z,4.50
2023-05-09T04:36:43.522Z,4.03
2023-05-09T04:38:45.172Z,5.68
2023-05-09T04:40:49.942Z,4.32
2023-05-09T04:42:51.660Z,4.68
2023-05-09T04:44:55.925Z,5.65
2023-05-09T04:46:58.184Z,4.35
2023-05-09T04:48:59.712Z,4.82
2023-05-09T04:51:01.653Z,5.05
2023-05-09T04:53:03.263Z,4.30
2023-05-09T04:55:05.278Z,4.35
2023-05-09T04:57:18.038Z,4.47
2023-05-09T04:59:23.357Z,4.55
2023-05-09T05:01:26.615Z,4.50
2023-05-09T05:03:35.478Z,5.10
2023-05-09T05:05:37.993Z,4.88
2023-05-09T05:07:40.546Z,4.65
2023-05-09T05:09:42.608Z,4.75
2023-05-09T05:11:57.159Z,5.00
2023-05-09T05:14:00.565Z,5.25
2023-05-09T05:16:02.295Z,4.68
2023-05-09T05:18:04.234Z,4.80
2023-05-09T05:20:12.003Z,5.28
2023-05-09T05:22:18.467Z,6.20
2023-05-09T05:24:21.331Z,5.45
2023-05-09T05:26:28.380Z,5.15
2023-05-09T05:28:30.391Z,5.05
2023-05-09T05:30:35.459Z,5.50
2023-05-09T05:32:37.475Z,6.45
2023-05-09T05:34:39.689Z,7.53
2023-05-09T05:36:41.254Z,5.75
2023-05-09T05:38:42.884Z,5.15
2023-05-09T05:40:45.652Z,5.90
2023-05-09T05:42:47.336Z,5.45
2023-05-09T05:44:49.014Z,5.18
2023-05-09T05:46:54.914Z,5.45
2023-05-09T05:48:59.359Z,6.53
2023-05-09T05:51:01.334Z,5.25
2023-05-09T05:53:06.514Z,4.60
2023-05-09T05:55:12.133Z,4.40
2023-05-09T05:57:14.117Z,4.78
2023-05-09T05:59:25.046Z,6.22
2023-05-09T06:01:26.993Z,4.93
2023-05-09T06:03:33.670Z,4.20
2023-05-09T06:05:42.254Z,4.20
2023-05-09T06:07:46.961Z,4.40
2023-05-09T06:09:48.589Z,5.38
2023-05-09T06:11:50.339Z,5.47
2023-05-09T06:13:52.034Z,4.75
2023-05-09T06:16:04.702Z,5.60
2023-05-09T06:18:19.389Z,4.68
2023-05-09T06:20:22.028Z,6.13
2023-05-09T06:22:23.481Z,5.07
2023-05-09T06:24:35.302Z,4.88
2023-05-09T06:26:38.430Z,4.68
2023-05-09T06:28:39.914Z,5.20
2023-05-09T06:30:41.422Z,4.53
2023-05-09T06:32:43.017Z,4.38
2023-05-09T06:34:44.474Z,4.43
2023-05-09T06:36:45.976Z,4.60
2023-05-09T06:38:47.743Z,4.50
2023-05-09T06:40:51.641Z,4.28
2023-05-09T06:42:53.510Z,4.63
2023-05-09T06:44:55.631Z,4.80
2023-05-09T06:46:57.102Z,6.00
2023-05-09T06:48:59.340Z,4.68
2023-05-09T06:51:00.940Z,5.15
2023-05-09T06:53:02.538Z,4.35
2023-05-09T06:55:08.234Z,5.13
2023-05-09T06:57:09.748Z,5.13
2023-05-09T06:59:13.819Z,4.50
2023-05-09T07:01:15.422Z,4.03
2023-05-09T07:03:22.425Z,4.35
2023-05-09T07:05:23.937Z,5.15
2023-05-09T07:07:25.673Z,4.22
2023-05-09T07:09:28.697Z,4.47
2023-05-09T07:11:38.089Z,4.15
2023-05-09T07:13:39.544Z,3.63
2023-05-09T07:15:42.944Z,3.92
2023-05-09T07:17:44.906Z,3.78
2023-05-09T07:19:46.669Z,3.88
2023-05-09T07:21:48.398Z,3.78
2023-05-09T07:23:51.715Z,4.55
2023-05-09T07:25:57.638Z,4.20
2023-05-09T07:28:02.151Z,4.28
2023-05-09T07:30:11.847Z,3.70
2023-05-09T07:32:13.464Z,4.43
2023-05-09T07:34:16.579Z,4.07
2023-05-09T07:36:18.216Z,4.03
2023-05-09T07:38:19.915Z,3.70
2023-05-09T07:40:21.300Z,4.35
2023-05-09T07:42:23.114Z,3.38
2023-05-09T07:44:24.711Z,3.92
2023-05-09T07:46:29.415Z,3.53
2023-05-09T07:48:33.694Z,4.22
2023-05-09T07:50:35.191Z,4.25
2023-05-09T07:52:39.667Z,3.50
2023-05-09T07:54:41.308Z,4.20
2023-05-09T07:56:43.007Z,3.78
2023-05-09T07:58:44.707Z,3.90
2023-05-09T08:00:46.161Z,3.65
2023-05-09T08:02:48.004Z,3.42
2023-05-09T08:04:49.569Z,4.68
2023-05-09T08:06:51.246Z,4.50
2023-05-09T08:08:52.963Z,3.83
2023-05-09T08:10:54.580Z,3.40
2023-05-09T08:12:56.818Z,3.45
2023-05-09T08:15:01.408Z,3.50
2023-05-09T08:17:05.139Z,3.28
2023-05-09T08:19:06.623Z,2.90
2023-05-09T08:21:10.873Z,3.20
2023-05-09T08:23:12.421Z,4.30
2023-05-09T08:25:16.745Z,3.22
2023-05-09T08:27:20.702Z,3.25
2023-05-09T08:29:22.226Z,2.92
2023-05-09T08:31:27.226Z,4.07
2023-05-09T08:33:28.684Z,3.85
2023-05-09T08:35:30.322Z,3.03
2023-05-09T08:37:32.384Z,2.90
2023-05-09T08:39:37.461Z,3.17
2023-05-09T08:41:39.626Z,3.67
2023-05-09T08:43:41.801Z,2.97
2023-05-09T08:45:50.118Z,3.15
2023-05-09T08:47:55.924Z,3.58
2023-05-09T08:49:57.670Z,2.85
2023-05-09T08:52:05.207Z,3.17
2023-05-09T08:54:11.222Z,3.20
2023-05-09T08:56:13.050Z,3.60
2023-05-09T08:58:19.591Z,4.35
2023-05-09T09:00:21.811Z,3.50
2023-05-09T09:02:23.534Z,5.47
2023-05-09T09:04:24.973Z,3.60
2023-05-09T09:06:29.858Z,3.20
2023-05-09T09:08:31.524Z,3.17
2023-05-09T09:10:34.419Z,3.17
2023-05-09T09:12:37.467Z,3.08
2023-05-09T09:14:46.343Z,3.15
2023-05-09T09:16:49.870Z,2.70
2023-05-09T09:18:58.504Z,2.90
2023-05-09T09:21:06.810Z,2.30
2023-05-09T09:23:12.388Z,2.78
2023-05-09T09:25:13.906Z,3.00
2023-05-09T09:27:18.912Z,3.17
2023-05-09T09:29:21.173Z,2.60
2023-05-09T09:31:30.290Z,2.90
2023-05-09T09:33:32.065Z,2.45
2023-05-09T09:35:39.141Z,2.88
2023-05-09T09:37:42.747Z,2.72
2023-05-09T09:39:57.838Z,2.53
2023-05-09T09:42:10.420Z,3.00
2023-05-09T09:44:17.446Z,2.60
2023-05-09T09:46:19.441Z,2.35
2023-05-09T09:48:25.682Z,2.70
2023-05-09T09:50:27.370Z,2.80
2023-05-09T09:52:28.877Z,2.88
2023-05-09T09:54:33.875Z,2.60
2023-05-09T09:56:42.905Z,2.45
2023-05-09T09:58:47.581Z,2.60
2023-05-09T10:01:05.046Z,2.70
2023-05-09T10:03:14.540Z,3.00
2023-05-09T10:05:28.071Z,2.63
2023-05-09T10:07:33.987Z,2.58
2023-05-09T10:09:37.956Z,2.60
2023-05-09T10:11:48.814Z,2.72
2023-05-09T10:13:50.615Z,2.50
2023-05-09T10:15:54.152Z,2.65
2023-05-09T10:18:01.693Z,2.88
2023-05-09T10:20:05.971Z,2.40
2023-05-09T10:22:12.854Z,2.70
2023-05-09T10:24:16.492Z,2.50
2023-05-09T10:26:27.704Z,2.60
2023-05-09T10:28:32.729Z,2.30
2023-05-09T10:30:40.418Z,2.35
2023-05-09T10:32:48.467Z,2.55
2023-05-09T10:34:54.808Z,2.55
2023-05-09T10:36:57.893Z,2.85
2023-05-09T10:39:01.150Z,2.15
2023-05-09T10:41:08.914Z,3.17
2023-05-09T10:43:10.708Z,2.40
2023-05-09T10:45:13.398Z,2.28
2023-05-09T10:47:15.912Z,2.33
2023-05-09T10:49:20.956Z,2.38
2023-05-09T10:51:24.592Z,3.10
2023-05-09T10:53:46.018Z,2.53
2023-05-09T10:55:55.509Z,2.38
2023-05-09T10:58:07.192Z,2.25
2023-05-09T11:00:10.205Z,2.25
2023-05-09T11:02:14.745Z,2.10
2023-05-09T11:04:17.356Z,2.45
2023-05-09T11:06:52.158Z,3.00
2023-05-09T11:08:54.200Z,2.28
2023-05-09T11:10:57.292Z,2.08
2023-05-09T11:13:02.407Z,2.00
2023-05-09T11:15:07.959Z,2.97
2023-05-09T11:17:28.907Z,3.92
2023-05-09T11:19:38.203Z,2.28
2023-05-09T11:21:59.959Z,2.90
2023-05-09T11:24:16.413Z,2.00
2023-05-09T11:26:22.491Z,1.88
2023-05-09T11:28:29.323Z,1.80
2023-05-09T11:30:40.750Z,2.20
2023-05-09T11:32:51.068Z,1.92
2023-05-09T11:34:52.887Z,2.17
2023-05-09T11:37:09.520Z,2.20
2023-05-09T11:39:11.578Z,2.10
2023-05-09T11:41:13.670Z,2.90
2023-05-09T11:43:17.180Z,2.05
2023-05-09T11:45:19.149Z,2.92
2023-05-09T11:47:23.850Z,1.80
2023-05-09T11:49:28.234Z,3.97
2023-05-09T11:51:29.884Z,3.97
2023-05-09T11:53:34.006Z,2.47
2023-05-09T11:55:38.013Z,2.95
2023-05-09T11:57:45.309Z,1.77
2023-05-09T11:59:48.443Z,1.67
2023-05-09T12:01:49.870Z,3.58
2023-05-09T12:03:51.849Z,4.47
2023-05-09T12:05:55.144Z,4.50
2023-05-09T12:08:02.609Z,2.92
2023-05-09T12:10:13.198Z,1.80
2023-05-09T12:12:14.962Z,2.55
2023-05-09T12:14:37.011Z,2.38
2023-05-09T12:16:45.347Z,1.83
2023-05-09T12:18:51.567Z,2.08
2023-05-09T12:20:53.819Z,1.77
2023-05-09T12:22:57.054Z,1.80
2023-05-09T12:25:04.063Z,1.67
2023-05-09T12:27:09.771Z,1.92
2023-05-09T12:29:11.577Z,2.45
2023-05-09T12:31:13.419Z,1.98
2023-05-09T12:33:18.196Z,2.03
2023-05-09T12:35:22.232Z,1.80
2023-05-09T12:37:23.731Z,2.35
2023-05-09T12:39:26.637Z,1.80
2023-05-09T12:41:39.138Z,1.80
2023-05-09T12:43:48.261Z,2.58
2023-05-09T12:46:20.824Z,1.95
2023-05-09T12:48:26.307Z,1.63
2023-05-09T12:50:36.768Z,1.80
2023-05-09T12:52:50.717Z,2.95
2023-05-09T12:55:16.268Z,1.58
2023-05-09T12:57:28.875Z,2.08
2023-05-09T12:59:33.360Z,1.98
2023-05-09T13:01:44.078Z,1.77
2023-05-09T13:03:51.628Z,1.83
2023-05-09T13:06:01.195Z,2.00
2023-05-09T13:08:02.876Z,1.80
2023-05-09T13:10:13.888Z,2.53
2023-05-09T13:12:20.537Z,2.22
2023-05-09T13:14:24.034Z,3.15
2023-05-09T13:16:25.528Z,2.03
2023-05-09T13:18:30.106Z,2.58
2023-05-09T13:20:31.722Z,2.50
2023-05-09T13:22:33.463Z,1.90
2023-05-09T13:24:35.003Z,2.95
2023-05-09T13:26:36.722Z,1.75
2023-05-09T13:28:39.218Z,2.90
2023-05-09T13:30:48.195Z,1.60
2023-05-09T13:32:51.356Z,1.58
2023-05-09T13:34:53.322Z,2.13
2023-05-09T13:36:57.806Z,2.25
2023-05-09T13:38:59.287Z,1.58
2023-05-09T13:41:03.906Z,1.60
2023-05-09T13:43:05.901Z,2.17
2023-05-09T13:45:08.487Z,1.30
2023-05-09T13:47:11.455Z,1.52
2023-05-09T13:49:13.229Z,2.42
2023-05-09T13:51:15.381Z,1.63
2023-05-09T13:53:17.229Z,1.90
2023-05-09T13:55:21.847Z,2.53
2023-05-09T13:57:23.352Z,2.83
2023-05-09T13:59:24.958Z,1.83
2023-05-09T14:01:26.580Z,1.60
2023-05-09T14:03:31.994Z,1.88
2023-05-09T14:05:34.177Z,2.35
2023-05-09T14:07:36.047Z,1.75
2023-05-09T14:09:40.007Z,1.80
2023-05-09T14:11:42.834Z,1.55
2023-05-09T14:13:44.763Z,1.40
2023-05-09T14:15:46.418Z,1.45
2023-05-09T14:17:48.103Z,1.88
2023-05-09T14:19:50.895Z,2.63
2023-05-09T14:21:52.648Z,4.28
2023-05-09T14:23:54.536Z,4.78
2023-05-09T14:25:56.310Z,2.38
2023-05-09T14:27:59.413Z,3.15
2023-05-09T14:30:01.124Z,3.20
2023-05-09T14:32:02.754Z,2.40
2023-05-09T14:34:05.293Z,1.95
2023-05-09T14:36:07.573Z,1.30
2023-05-09T14:38:09.086Z,1.83
2023-05-09T14:40:10.831Z,2.92
2023-05-09T14:42:13.996Z,1.40
2023-05-09T14:44:17.282Z,1.77
2023-05-09T14:46:18.983Z,1.50
2023-05-09T14:48:20.499Z,1.50
2023-05-09T14:50:22.269Z,1.50
2023-05-09T14:52:23.979Z,1.77
2023-05-09T14:54:26.032Z,1.33
2023-05-09T14:56:31.153Z,1.67
2023-05-09T14:58:34.340Z,1.35
2023-05-09T15:00:39.392Z,1.52
2023-05-09T15:02:42.027Z,2.38
2023-05-09T15:04:44.985Z,1.52
2023-05-09T15:06:46.724Z,1.52
2023-05-09T15:08:51.190Z,1.48
2023-05-09T15:10:53.230Z,2.63
2023-05-09T15:12:55.380Z,1.40
2023-05-09T15:15:13.030Z,1.90
2023-05-09T15:17:14.696Z,3.33
2023-05-09T15:19:16.219Z,1.85
2023-05-09T15:21:17.824Z,3.42
2023-05-09T15:23:19.433Z,1.85
2023-05-09T15:25:21.835Z,2.47
2023-05-09T15:27:23.308Z,1.67
2023-05-09T15:29:24.961Z,2.45
2023-05-09T15:31:26.572Z,1.73
2023-05-09T15:33:28.539Z,2.22
2023-05-09T15:35:30.093Z,3.00
2023-05-09T15:37:33.269Z,5.40
2023-05-09T15:39:36.268Z,11.25
2023-05-09T15:41:37.904Z,10.98
2023-05-09T15:43:39.427Z,11.23
2023-05-09T15:45:45.711Z,24.73
2023-05-09T15:47:47.654Z,32.83
2023-05-09T15:49:49.174Z,25.08
2023-05-09T15:51:50.661Z,17.55
2023-05-09T15:53:52.152Z,7.80
2023-05-09T15:55:56.998Z,10.30
2023-05-09T15:57:58.684Z,4.40
2023-05-09T16:00:00.395Z,4.20
2023-05-09T16:02:02.425Z,3.70
2023-05-09T16:04:05.268Z,5.45
2023-05-09T16:06:07.255Z,5.47
2023-05-09T16:08:08.726Z,2.10
2023-05-09T16:10:10.485Z,2.20
2023-05-09T16:12:12.729Z,1.75
2023-05-09T16:14:14.380Z,1.95
2023-05-09T16:16:18.780Z,1.77
2023-05-09T16:18:20.326Z,1.52
2023-05-09T16:20:21.871Z,1.75
2023-05-09T16:22:23.472Z,1.83
2023-05-09T16:24:25.235Z,1.83
2023-05-09T16:26:29.957Z,2.55
2023-05-09T16:28:31.865Z,3.20
2023-05-09T16:30:36.083Z,2.63
2023-05-09T16:32:39.430Z,2.38
2023-05-09T16:34:41.074Z,1.50
2023-05-09T16:36:44.086Z,1.50
2023-05-09T16:38:46.022Z,2.03
2023-05-09T16:40:49.917Z,2.30
2023-05-09T16:42:51.416Z,3.83
2023-05-09T16:44:52.908Z,1.52
2023-05-09T16:46:54.501Z,2.97
2023-05-09T16:48:58.409Z,2.38
2023-05-09T16:51:00.032Z,1.40
2023-05-09T16:53:02.004Z,1.98
2023-05-09T16:55:04.208Z,1.98
2023-05-09T16:57:05.879Z,1.90
2023-05-09T16:59:07.497Z,2.08
2023-05-09T17:01:09.548Z,1.95
2023-05-09T17:03:11.063Z,2.88
2023-05-09T17:05:12.652Z,2.60
2023-05-09T17:07:17.647Z,2.15
2023-05-09T17:09:19.345Z,2.00
2023-05-09T17:11:21.573Z,2.17
2023-05-09T17:13:23.344Z,6.38
2023-05-09T17:15:28.062Z,5.75
2023-05-09T17:17:29.521Z,6.43
2023-05-09T17:19:32.626Z,4.25
2023-05-09T17:21:39.788Z,3.80
2023-05-09T17:23:41.492Z,4.07
2023-05-09T17:25:43.511Z,2.72
2023-05-09T17:27:45.430Z,2.47
2023-05-09T17:30:02.237Z,2.58
2023-05-09T17:32:06.229Z,2.88
2023-05-09T17:34:07.735Z,3.00
2023-05-09T17:36:09.478Z,2.08
2023-05-09T17:38:11.100Z,2.22
2023-05-09T17:40:14.491Z,3.03
2023-05-09T17:42:19.172Z,2.38
2023-05-09T17:44:21.124Z,2.20
2023-05-09T17:46:27.642Z,2.30
2023-05-09T17:48:29.257Z,2.20
2023-05-09T17:50:31.288Z,1.80
2023-05-09T17:52:33.688Z,1.73
2023-05-09T17:54:36.640Z,2.13
2023-05-09T17:56:38.150Z,3.55
2023-05-09T17:58:39.851Z,2.55
2023-05-09T18:00:41.652Z,1.80
2023-05-09T18:02:43.725Z,2.53
2023-05-09T18:04:46.312Z,2.20
2023-05-09T18:06:49.887Z,2.70
2023-05-09T18:08:51.736Z,2.40
2023-05-09T18:10:56.568Z,2.25
2023-05-09T18:12:58.160Z,3.05
2023-05-09T18:14:59.973Z,2.38
2023-05-09T18:17:01.691Z,2.15
2023-05-09T18:19:03.218Z,2.45
2023-05-09T18:21:05.395Z,5.15
2023-05-09T18:23:07.749Z,2.20
2023-05-09T18:25:09.852Z,2.70
2023-05-09T18:27:11.822Z,1.98
2023-05-09T18:29:18.509Z,5.00
2023-05-09T18:31:20.100Z,2.38
2023-05-09T18:33:26.626Z,2.63
2023-05-09T18:35:28.580Z,2.97
2023-05-09T18:37:32.517Z,2.15
2023-05-09T18:39:34.040Z,3.30
2023-05-09T18:41:35.646Z,3.78
2023-05-09T18:43:42.018Z,9.75
2023-05-09T18:45:44.970Z,15.07
2023-05-09T18:47:47.581Z,13.52
2023-05-09T18:49:49.474Z,10.43
2023-05-09T18:51:51.200Z,8.00
2023-05-09T18:53:53.409Z,7.43
2023-05-09T18:55:56.389Z,5.43
2023-05-09T18:57:58.345Z,5.72
2023-05-09T18:59:59.892Z,5.40
2023-05-09T19:02:04.517Z,3.78
2023-05-09T19:04:06.992Z,2.95
2023-05-09T19:06:10.551Z,2.95
2023-05-09T19:08:11.970Z,2.90
2023-05-09T19:10:14.846Z,5.53
2023-05-09T19:12:19.590Z,3.78
2023-05-09T19:14:22.335Z,4.43
2023-05-09T19:16:24.904Z,3.25
2023-05-09T19:18:26.831Z,5.25
2023-05-09T19:20:29.990Z,2.88
2023-05-09T19:22:45.403Z,2.30
2023-05-09T19:24:47.432Z,2.58
2023-05-09T19:26:49.682Z,4.20
2023-05-09T19:28:51.215Z,4.85
2023-05-09T19:30:52.784Z,2.47
2023-05-09T19:32:54.588Z,4.32
2023-05-09T19:34:58.853Z,2.42
2023-05-09T19:37:00.651Z,4.40
2023-05-09T19:39:04.715Z,6.15
2023-05-09T19:41:06.294Z,7.47
2023-05-09T19:43:07.828Z,5.97
2023-05-09T19:45:09.761Z,5.00
2023-05-09T19:47:11.293Z,4.90
2023-05-09T19:49:17.154Z,4.93
2023-05-09T19:51:19.342Z,5.40
2023-05-09T19:53:20.835Z,4.07
2023-05-09T19:55:22.321Z,3.10
2023-05-09T19:57:23.801Z,3.42
2023-05-09T19:59:29.102Z,3.92
2023-05-09T20:01:30.712Z,4.20
2023-05-09T20:03:34.554Z,2.67
2023-05-09T20:05:36.246Z,2.60
2023-05-09T20:07:37.951Z,4.75
2023-05-09T20:09:39.674Z,4.88
2023-05-09T20:11:41.320Z,4.93
2023-05-09T20:13:45.103Z,5.68
2023-05-09T20:15:47.307Z,3.42
2023-05-09T20:17:49.029Z,2.85
2023-05-09T20:19:50.734Z,3.83
2023-05-09T20:21:52.376Z,3.00
2023-05-09T20:23:57.033Z,3.58
2023-05-09T20:25:58.946Z,3.10
2023-05-09T20:28:00.779Z,3.15
2023-05-09T20:30:04.110Z,3.53
2023-05-09T20:32:05.980Z,2.83
2023-05-09T20:34:10.601Z,2.78
2023-05-09T20:36:12.052Z,4.05
2023-05-09T20:38:13.518Z,2.70
2023-05-09T20:40:15.219Z,2.95
2023-05-09T20:42:17.407Z,2.63
2023-05-09T20:44:19.314Z,5.07
2023-05-09T20:46:20.821Z,4.43
2023-05-09T20:48:23.527Z,6.03
2023-05-09T20:50:25.334Z,5.97
2023-05-09T20:52:29.048Z,2.85
2023-05-09T20:54:31.006Z,2.30
2023-05-09T20:56:35.153Z,2.75
2023-05-09T20:58:39.405Z,3.00
2023-05-09T21:00:42.795Z,3.33
2023-05-09T21:02:44.538Z,3.05
2023-05-09T21:04:46.152Z,2.58
2023-05-09T21:06:47.885Z,3.47
2023-05-09T21:08:49.332Z,5.90
2023-05-09T21:10:53.925Z,15.60
2023-05-09T21:12:59.257Z,12.77
2023-05-09T21:15:05.673Z,11.07
2023-05-09T21:17:07.310Z,7.60
2023-05-09T21:19:08.898Z,6.38
2023-05-09T21:21:10.654Z,5.75
2023-05-09T21:23:12.195Z,3.75
2023-05-09T21:25:13.805Z,2.80
2023-05-09T21:27:15.529Z,2.70
2023-05-09T21:29:17.009Z,4.25
2023-05-09T21:31:18.582Z,4.32
2023-05-09T21:33:20.685Z,3.60
2023-05-09T21:35:22.316Z,2.85
2023-05-09T21:37:23.867Z,3.28
2023-05-09T21:39:25.689Z,2.42
2023-05-09T21:41:32.323Z,3.17
2023-05-09T21:43:33.802Z,3.45
2023-05-09T21:45:35.308Z,3.40
2023-05-09T21:47:41.749Z,2.58
2023-05-09T21:49:43.303Z,2.63
2023-05-09T21:51:44.890Z,4.07
2023-05-09T21:53:46.426Z,3.17
2023-05-09T21:55:48.056Z,3.38
2023-05-09T21:57:49.723Z,3.90
2023-05-09T21:59:51.393Z,2.53
2023-05-09T22:01:52.984Z,4.50
2023-05-09T22:03:56.804Z,2.75
2023-05-09T22:05:58.348Z,2.60
2023-05-09T22:07:59.928Z,3.47
2023-05-09T22:10:01.579Z,4.20
2023-05-09T22:12:03.207Z,3.20
2023-05-09T22:14:10.122Z,3.63
2023-05-09T22:16:11.799Z,4.05
2023-05-09T22:18:14.696Z,6.68
2023-05-09T22:20:18.541Z,3.70
2023-05-09T22:22:21.258Z,2.67
2023-05-09T22:24:22.687Z,2.78
2023-05-09T22:26:24.258Z,2.70
2023-05-09T22:28:25.861Z,3.22
2023-05-09T22:30:27.767Z,3.53
2023-05-09T22:32:29.448Z,2.78
2023-05-09T22:34:31.099Z,3.60
2023-05-09T22:36:33.298Z,3.88
2023-05-09T22:38:35.009Z,2.90
2023-05-09T22:40:42.011Z,3.80
2023-05-09T22:42:43.996Z,3.15
2023-05-09T22:44:47.131Z,2.88
2023-05-09T22:46:48.664Z,4.80
2023-05-09T22:48:50.183Z,4.25
2023-05-09T22:50:51.961Z,2.75
2023-05-09T22:52:53.450Z,2.72
2023-05-09T22:54:54.951Z,4.88
2023-05-09T22:56:56.428Z,3.10
2023-05-09T22:59:01.431Z,3.67
2023-05-09T23:01:02.952Z,4.25
2023-05-09T23:03:05.162Z,3.17
2023-05-09T23:05:08.664Z,5.63
2023-05-09T23:07:12.703Z,3.55
2023-05-09T23:09:14.381Z,3.10
2023-05-09T23:11:15.862Z,3.78
2023-05-09T23:13:17.671Z,3.78
2023-05-09T23:15:19.228Z,4.15
2023-05-09T23:17:21.296Z,4.28
2023-05-09T23:19:22.977Z,3.60
2023-05-09T23:21:24.485Z,5.88
2023-05-09T23:23:26.138Z,3.80
2023-05-09T23:25:27.576Z,6.30
2023-05-09T23:27:31.151Z,4.10
2023-05-09T23:29:33.170Z,4.32
2023-05-09T23:31:34.858Z,4.07
2023-05-09T23:33:36.432Z,3.95
2023-05-09T23:35:37.817Z,3.75
2023-05-09T23:37:39.279Z,4.60
2023-05-09T23:39:43.152Z,3.22
2023-05-09T23:41:44.696Z,3.25
2023-05-09T23:43:46.187Z,4.07
2023-05-09T23:45:47.676Z,3.50
2023-05-09T23:47:49.363Z,3.55
2023-05-09T23:49:50.967Z,2.67
2023-05-09T23:51:52.554Z,4.70
2023-05-09T23:53:54.128Z,3.83
2023-05-09T23:55:55.626Z,3.40
2023-05-09T23:57:57.667Z,5.13
